Patcona II — WDC2170 — position and weather

sailwx.info

Track history (hours):
 
Tides and Currents Weather Stations Pressure Air Temp Water Temp Dewpoint Dewpoint Depression Visibility Wind Speed Wind Dir Waves Ship Positions

Patcona II

Owner: Connolly-Pacific Co, long beach, CA. More information available from US FCC via Universal Licensing System and Coast Guard Vessel Documentation Center.

Last reported at 2015-Jul-03 23:33 UTC. Time now 2015-Jul-03 23:45 UTC.
Position N 33°46' W 118°13'.

; draft 9 m.

Type: Towing. MMSI: 366988960.

Date/timePositionNaut miles runAvg speedWind from/ knotsBaromVisibWave heightAir tempDewpointWater temp
2015-Jul-03 23:33N 33°46' W 118°13'0 0.0
2015-Jul-03 22:34N 33°46' W 118°13'0 0.0
2015-Jul-03 21:33N 33°46' W 118°13'0 0.0
2015-Jul-03 20:34N 33°46' W 118°13'0 0.0
2015-Jul-03 19:33N 33°46' W 118°13'11954143.0
2015-Jul-03 19:16N 29°45' W 095°17'11951691.7
2015-Jul-03 18:34N 33°46' W 118°13'1199539353.4
2015-Jul-03 18:33N 29°43' W 095°13'11991201.2
2015-Jul-03 17:34N 33°46' W 118°13'1204619250.9
2015-Jul-03 17:33N 29°45' W 095°06'12041206.1
2015-Jul-03 16:34N 33°46' W 118°13'120320055.1
2015-Jul-03 16:30N 29°47' W 095°06'12031280.1
2015-Jul-03 15:34N 33°46' W 118°13'120334380.2
2015-Jul-03 15:31N 29°47' W 095°06'12031247.0
2015-Jul-03 14:34N 33°46' W 118°13'120312134.2
2015-Jul-03 14:28N 29°47' W 095°06'12031332.1
2015-Jul-03 13:33N 33°46' W 118°13'120334109.5
2015-Jul-03 13:31N 29°47' W 095°06'12031250.6
2015-Jul-03 12:34N 33°46' W 118°13'1203721985.2
2015-Jul-03 12:33N 29°47' W 095°06'12031205.7
2015-Jul-03 11:34N 33°46' W 118°13'120318278.1
2015-Jul-03 11:30N 29°47' W 095°06'12031287.7
2015-Jul-03 10:34N 33°46' W 118°13'12035647.9
2015-Jul-03 10:21N 29°47' W 095°06'12031524.2
2015-Jul-03 09:33N 33°46' W 118°13'120310121.3
2015-Jul-03 09:26N 29°47' W 095°06'12031365.7
2015-Jul-03 08:33N 33°46' W 118°13'12033035.7
2015-Jul-03 08:10N 29°47' W 095°06'12031992.6
2015-Jul-03 07:33N 33°46' W 118°13'12038544.2
2015-Jul-03 07:25N 29°47' W 095°06'12031405.1
2015-Jul-03 06:34N 33°46' W 118°13'120375998.4
2015-Jul-03 06:33N 29°47' W 095°06'12031222.7
2015-Jul-03 05:34N 33°46' W 118°13'0 0.0
2015-Jul-03 04:34N 33°46' W 118°13'120320826.5
2015-Jul-03 04:30N 29°47' W 095°06'12031277.1
2015-Jul-03 03:34N 33°46' W 118°13'120314536.7
2015-Jul-03 03:29N 29°47' W 095°06'12031307.6
2015-Jul-03 02:33N 33°46' W 118°13'12037136.6
2015-Jul-03 02:23N 29°47' W 095°06'12031452.2
2015-Jul-03 01:34N 33°46' W 118°13'1203254818.5
2015-Jul-03 01:33N 29°47' W 095°06'12031205.7
2015-Jul-03 00:33N 33°46' W 118°13'120323289.9
2015-Jul-03 00:30N 29°47' W 095°06'12031273.0
2015-Jul-02 23:34N 33°46' W 118°13'1203117078.8
2015-Jul-02 23:33N 29°47' W 095°06'12031215.8
2015-Jul-02 22:34N 33°46' W 118°13'120375998.7
2015-Jul-02 22:33N 29°47' W 095°06'12031219.2
2015-Jul-02 21:33N 33°46' W 118°13'1203117079.3
2015-Jul-02 21:33N 29°47' W 095°06'12031215.5
2015-Jul-02 20:33N 33°46' W 118°13'1203618847.5
2015-Jul-02 20:33N 29°47' W 095°06'12031206.0
2015-Jul-02 19:33N 33°46' W 118°13'1203160441.7
2015-Jul-02 19:33N 29°47' W 095°06'12031215.5
2015-Jul-02 18:34N 33°46' W 118°13'1203254819.2
2015-Jul-02 18:33N 29°47' W 095°06'0 0.0
2015-Jul-02 17:33N 29°47' W 095°06'1203180496.9
2015-Jul-02 17:33N 33°46' W 118°13'0 0.0
2015-Jul-02 16:33N 33°46' W 118°13'120390248.1
2015-Jul-02 16:33N 29°47' W 095°06'12031222.7
2015-Jul-02 15:34N 33°46' W 118°13'1203541488.5
2015-Jul-02 15:33N 29°47' W 095°06'12031202.6
2015-Jul-02 14:33N 33°46' W 118°13'120315093.8
2015-Jul-02 14:29N 29°47' W 095°06'12031311.9
2015-Jul-02 13:34N 33°46' W 118°13'1203618844.9
2015-Jul-02 13:33N 29°47' W 095°06'12031205.3
2015-Jul-02 12:34N 33°46' W 118°13'12035435.3
2015-Jul-02 12:20N 29°47' W 095°06'12031545.5
2015-Jul-02 11:34N 33°46' W 118°13'120318355.8
2015-Jul-02 11:30N 29°47' W 095°06'12031288.1
2015-Jul-02 10:34N 33°46' W 118°13'120356260.0
2015-Jul-02 10:32N 29°47' W 095°06'12031229.6
2015-Jul-02 09:34N 33°46' W 118°13'120421888.1
2015-Jul-02 09:30N 29°46' W 095°06'12041271.7
2015-Jul-02 08:33N 33°46' W 118°13'1203393594.4
2015-Jul-02 08:33N 29°44' W 095°08'12031206.0
2015-Jul-02 07:33N 33°46' W 118°13'119953287.6
2015-Jul-02 07:32N 29°44' W 095°12'11991226.9
2015-Jul-02 06:33N 33°46' W 118°13'119719418.9
2015-Jul-02 06:30N 29°43' W 095°14'11971275.8
2015-Jul-02 05:33N 33°46' W 118°13'0 0.0
2015-Jul-02 04:33N 33°46' W 118°13'1198226899.5
2015-Jul-02 04:33N 29°43' W 095°14'11981203.9
2015-Jul-02 03:33N 33°46' W 118°13'0 0.0
2015-Jul-02 02:33N 33°46' W 118°13'119812317.4
2015-Jul-02 02:27N 29°43' W 095°14'11981331.0
2015-Jul-02 01:33N 33°46' W 118°13'119882905.6
2015-Jul-02 01:33N 29°43' W 095°14'11981214.7
2015-Jul-02 00:33N 33°46' W 118°13'0 0.0
2015-Jul-01 23:33N 33°46' W 118°13'11982155545.5
2015-Jul-01 23:33N 29°43' W 095°14'11981197.9
2015-Jul-01 22:33N 33°46' W 118°13'1198139067.5
2015-Jul-01 22:33N 29°43' W 095°14'11981208.3
2015-Jul-01 21:33N 33°46' W 118°13'1198134752.3
2015-Jul-01 21:33N 29°44' W 095°14'11981208.5
2015-Jul-01 20:33N 33°46' W 118°13'120439034.5
2015-Jul-01 20:32N 29°45' W 095°07'12041241.5
2015-Jul-01 19:33N 33°46' W 118°13'12036455.9
2015-Jul-01 19:22N 29°47' W 095°06'12031479.0
2015-Jul-01 18:33N 33°46' W 118°13'0 0.0
2015-Jul-01 17:33N 33°46' W 118°13'1203393811.6
2015-Jul-01 17:33N 29°47' W 095°06'12031207.0
2015-Jul-01 16:33N 33°46' W 118°13'120321551.9
2015-Jul-01 16:30N 29°47' W 095°06'12031274.5
2015-Jul-01 15:33N 33°46' W 118°13'12034331945.4
2015-Jul-01 15:33N 29°47' W 095°06'12031203.7
2015-Jul-01 14:33N 33°46' W 118°13'12034331945.4
2015-Jul-01 14:33N 29°47' W 095°06'12031203.3
2015-Jul-01 13:33N 33°46' W 118°13'1203139739.6
2015-Jul-01 13:33N 29°47' W 095°06'12031213.8
2015-Jul-01 12:33N 33°46' W 118°13'12034331927.4
2015-Jul-01 12:33N 29°47' W 095°06'12031203.6
2015-Jul-01 11:33N 33°46' W 118°13'1203105656.8
2015-Jul-01 11:33N 29°47' W 095°06'12031217.5
2015-Jul-01 10:33N 33°46' W 118°13'12048633.0
2015-Jul-01 10:25N 29°46' W 095°06'12041394.4
2015-Jul-01 09:33N 33°46' W 118°13'12035683.2
2015-Jul-01 09:21N 29°46' W 095°07'12031531.3
2015-Jul-01 08:33N 33°46' W 118°13'0 0.0
2015-Jul-01 07:33N 33°46' W 118°13'0 0.0
2015-Jul-01 06:33N 33°46' W 118°13'0 0.0
2015-Jul-01 05:33N 33°46' W 118°13'0 0.0
2015-Jul-01 04:33N 33°46' W 118°13'0 0.0
2015-Jul-01 03:33N 33°46' W 118°13'0 0.0
2015-Jul-01 02:33N 33°46' W 118°13'0 0.0
2015-Jul-01 01:33N 33°46' W 118°13'12033890.3
2015-Jul-01 01:15N 29°46' W 095°07'12031698.7
2015-Jul-01 00:32N 33°46' W 118°13'120313922.6
2015-Jul-01 00:27N 29°46' W 095°07'12031340.9
2015-Jun-30 23:33N 33°46' W 118°13'0 0.0
2015-Jun-30 22:33N 33°46' W 118°13'12032471.4
2015-Jun-30 22:04N 29°46' W 095°07'12032355.8
2015-Jun-30 21:33N 33°46' W 118°13'120347609.4
2015-Jun-30 21:32N 29°46' W 095°06'12031234.3
2015-Jun-30 20:33N 33°46' W 118°13'120339026.4
2015-Jun-30 20:32N 29°47' W 095°06'12031241.6
2015-Jun-30 19:33N 33°46' W 118°13'12034331978.1
2015-Jun-30 19:33N 29°47' W 095°06'12031204.0
2015-Jun-30 18:33N 33°46' W 118°13'0 0.0
2015-Jun-30 17:33N 33°46' W 118°13'1203135374.4
2015-Jun-30 17:33N 29°47' W 095°06'12031213.8
2015-Jun-30 16:33N 33°46' W 118°13'120354149.2
2015-Jun-30 16:32N 29°47' W 095°06'12031231.0
2015-Jun-30 15:33N 33°46' W 118°13'120330506.5
2015-Jun-30 15:31N 29°47' W 095°06'0 0.0
2015-Jun-30 14:33N 29°47' W 095°06'12031203.6
2015-Jun-30 13:33N 33°46' W 118°13'1204361134.6
2015-Jun-30 13:33N 29°46' W 095°06'12041207.5
2015-Jun-30 12:33N 33°46' W 118°13'1202432840.5
2015-Jun-30 12:33N 29°44' W 095°08'12021205.7
2015-Jun-30 11:33N 33°46' W 118°13'0 0.0
2015-Jun-30 10:33N 33°46' W 118°13'0 0.0
2015-Jun-30 09:33N 33°46' W 118°13'0 0.0
2015-Jun-30 08:33N 33°46' W 118°13'120230697.7
2015-Jun-30 08:31N 29°44' W 095°08'12021251.3
2015-Jun-30 07:33N 33°46' W 118°13'12039198.1
2015-Jun-30 07:26N 29°46' W 095°06'12031384.1
2015-Jun-30 06:33N 33°46' W 118°13'12034331945.4
2015-Jun-30 06:33N 29°47' W 095°06'12031203.3
2015-Jun-30 05:33N 33°46' W 118°13'0 0.0
2015-Jun-30 04:33N 33°46' W 118°13'1203333226.6
2015-Jun-30 04:33N 29°47' W 095°06'12031210.7
2015-Jun-30 03:33N 33°46' W 118°13'1203206281.9
2015-Jun-30 03:33N 29°47' W 095°06'12031210.7
2015-Jun-30 02:33N 33°46' W 118°13'1203139739.6
2015-Jun-30 02:33N 29°47' W 095°06'12031213.4
2015-Jun-30 01:33N 33°46' W 118°13'12034331945.4
2015-Jun-30 01:33N 29°47' W 095°06'12031203.7
2015-Jun-30 00:33N 33°46' W 118°13'12034331945.4
2015-Jun-30 00:33N 29°47' W 095°06'0 0.0
2015-Jun-29 23:33N 29°47' W 095°06'1203481324.5
2015-Jun-29 23:33N 33°46' W 118°13'0 0.0
2015-Jun-29 22:33N 33°46' W 118°13'1203216596.4
2015-Jun-29 22:33N 29°47' W 095°06'12031210.0
2015-Jun-29 21:33N 33°46' W 118°13'12031203.3
2015-Jun-29 20:33N 29°47' W 095°06'12031204.0
2015-Jun-29 19:33N 33°46' W 118°13'12031443975.8
2015-Jun-29 19:33N 29°47' W 095°06'12031194.0
2015-Jun-29 18:33N 33°46' W 118°13'1203206282.3
2015-Jun-29 18:33N 29°47' W 095°06'12031220.3
2015-Jun-29 17:33N 33°46' W 118°13'0 0.0
2015-Jun-29 16:33N 33°46' W 118°13'1203135372.7
2015-Jun-29 16:33N 29°47' W 095°06'0 0.0
2015-Jun-29 15:33N 29°47' W 095°06'1203433192.7
2015-Jun-29 15:33N 33°46' W 118°13'0 0.0
2015-Jun-29 14:33N 33°46' W 118°13'12034331945.4
2015-Jun-29 14:33N 29°47' W 095°06'0 0.0
2015-Jun-29 13:33N 29°47' W 095°06'12034331945.4
2015-Jun-29 13:33N 33°46' W 118°13'0 0.0
2015-Jun-29 12:33N 33°46' W 118°13'12034331945.4
2015-Jun-29 12:33N 29°47' W 095°06'12031203.3
2015-Jun-29 11:33N 33°46' W 118°13'1203393811.6
2015-Jun-29 11:33N 29°47' W 095°06'0 0.0
2015-Jun-29 10:33N 29°47' W 095°06'1203481325.3
2015-Jun-29 10:33N 33°46' W 118°13'0 0.0
2015-Jun-29 09:33N 33°46' W 118°13'12032165963.7
2015-Jun-29 09:33N 29°47' W 095°06'12031204.0
2015-Jun-29 08:33N 33°46' W 118°13'120361013.1
2015-Jun-29 08:32N 29°47' W 095°06'0 0.0
2015-Jun-29 07:33N 29°47' W 095°06'1203481325.3
2015-Jun-29 07:33N 33°46' W 118°13'0 0.0
2015-Jun-29 06:33N 33°46' W 118°13'1203139739.6
2015-Jun-29 06:33N 29°47' W 095°06'12031220.9
2015-Jun-29 05:33N 33°46' W 118°13'120342890.4
2015-Jun-29 05:32N 29°47' W 095°06'0 0.0
2015-Jun-29 04:33N 29°47' W 095°06'0 0.0
2015-Jun-29 03:33N 29°47' W 095°06'1203227996.2
2015-Jun-29 03:33N 33°46' W 118°13'0 0.0
2015-Jun-29 02:33N 33°46' W 118°13'1203433192.7
2015-Jun-29 02:33N 29°47' W 095°06'12031210.4
2015-Jun-29 01:33N 33°46' W 118°13'120320531.0
2015-Jun-29 01:30N 29°47' W 095°06'3 3.2
2015-Jun-29 00:33N 29°44' W 095°08'1203481029.6
2015-Jun-29 00:33N 33°46' W 118°13'0 0.0
2015-Jun-28 23:33N 33°46' W 118°13'120118629.7
2015-Jun-28 23:30N 29°45' W 095°10'12011282.9
2015-Jun-28 22:33N 33°46' W 118°13'1201216100.9
2015-Jun-28 22:33N 29°45' W 095°10'0 0.0
2015-Jun-28 21:33N 29°45' W 095°10'1201144067.3
2015-Jun-28 21:33N 33°46' W 118°13'0 0.0
2015-Jun-28 20:33N 33°46' W 118°13'120118710.0
2015-Jun-28 20:29N 29°45' W 095°10'12011282.9
2015-Jun-28 19:33N 33°46' W 118°13'0 0.0
2015-Jun-28 18:33N 33°46' W 118°13'0 0.0
2015-Jun-28 17:33N 33°46' W 118°13'0 0.0
2015-Jun-28 16:33N 33°46' W 118°13'120113942.0
2015-Jun-28 16:28N 29°45' W 095°10'12011314.1
2015-Jun-28 15:33N 33°46' W 118°13'12011173.8
2015-Jun-28 14:32N 29°45' W 095°10'120143655.6
2015-Jun-28 14:30N 33°46' W 118°13'0 0.0
2015-Jun-28 13:33N 33°46' W 118°13'120083081.6
2015-Jun-28 13:33N 29°45' W 095°11'12001213.9
2015-Jun-28 12:33N 33°46' W 118°13'0 0.0
2015-Jun-28 11:32N 33°46' W 118°13'11989983.5
2015-Jun-28 11:25N 29°44' W 095°14'0 0.0
2015-Jun-28 10:33N 29°44' W 095°14'119848459.1
2015-Jun-28 10:31N 33°46' W 118°13'0 0.0
2015-Jun-28 09:32N 33°46' W 118°13'119886257.2
2015-Jun-28 09:31N 29°44' W 095°14'0 0.0
2015-Jun-28 08:33N 29°44' W 095°14'119831027.8
2015-Jun-28 08:31N 33°46' W 118°13'11981242.5
2015-Jun-28 07:33N 29°44' W 095°14'1198226992.5
2015-Jun-28 07:33N 33°46' W 118°13'0 0.0
2015-Jun-28 06:33N 33°46' W 118°13'119915921.7
2015-Jun-28 06:29N 29°43' W 095°13'11991081.7
2015-Jun-28 05:22N 33°46' W 118°13'11995679.8
2015-Jun-28 05:09N 29°44' W 095°12'11991989.2
2015-Jun-28 04:33N 33°46' W 118°13'120284816.6
2015-Jun-28 04:32N 29°44' W 095°09'12021118.3
2015-Jun-28 03:28N 33°46' W 118°13'0 0.0
2015-Jun-28 02:33N 33°46' W 118°13'0 0.0
2015-Jun-28 01:33N 33°46' W 118°13'0 0.0
2015-Jun-28 00:33N 33°46' W 118°13'0 0.0
2015-Jun-27 23:32N 33°46' W 118°13'0 0.0
2015-Jun-27 22:33N 33°46' W 118°13'0 0.0
2015-Jun-27 21:26N 33°46' W 118°13'0 0.0
2015-Jun-27 20:33N 33°46' W 118°13'0 0.0
2015-Jun-27 19:33N 33°46' W 118°13'1201393143.9
2015-Jun-27 19:33N 29°44' W 095°09'12011138.6
2015-Jun-27 18:30N 33°46' W 118°13'0 0.0
2015-Jun-27 17:14N 33°46' W 118°13'0 0.0
2015-Jun-27 16:33N 33°46' W 118°13'0 0.0
2015-Jun-27 15:33N 33°46' W 118°13'0 0.0
2015-Jun-27 14:33N 33°46' W 118°13'0 0.0
2015-Jun-27 13:33N 33°46' W 118°13'0 0.0
2015-Jun-27 12:33N 33°46' W 118°13'0 0.0
2015-Jun-27 11:33N 33°46' W 118°13'0 0.0
2015-Jun-27 10:33N 33°46' W 118°13'0 0.0
2015-Jun-27 09:33N 33°46' W 118°13'120220512.8
2015-Jun-27 09:30N 29°44' W 095°08'12021247.7
2015-Jun-27 08:32N 33°46' W 118°13'0 0.0
2015-Jun-27 07:33N 33°46' W 118°13'0 0.0
2015-Jun-27 06:33N 33°46' W 118°13'0 0.0
2015-Jun-27 05:32N 33°46' W 118°13'0 0.0
2015-Jun-27 04:33N 33°46' W 118°13'120339020.2
2015-Jun-27 04:32N 29°44' W 095°07'12031241.0
2015-Jun-27 03:33N 33°46' W 118°13'1202393491.4
2015-Jun-27 03:33N 29°44' W 095°08'12021157.6
2015-Jun-27 02:31N 33°46' W 118°13'12021256.1
2015-Jun-27 01:34N 29°44' W 095°09'1202865233.3
2015-Jun-27 01:33N 33°46' W 118°13'0 0.0
2015-Jun-27 00:33N 33°46' W 118°13'119891768.2
2015-Jun-27 00:32N 29°44' W 095°13'11981220.5
2015-Jun-26 23:33N 33°46' W 118°13'119823440.6
2015-Jun-26 23:30N 29°44' W 095°13'0 0.0
2015-Jun-26 22:33N 29°44' W 095°13'1198862614.8
2015-Jun-26 22:33N 33°46' W 118°13'0 0.0
2015-Jun-26 21:33N 33°46' W 118°13'119811202.8
2015-Jun-26 21:27N 29°44' W 095°13'11981345.7
2015-Jun-26 20:33N 33°46' W 118°13'119823440.6
2015-Jun-26 20:30N 29°44' W 095°13'0 0.0
2015-Jun-26 19:34N 29°44' W 095°13'1198718849.7
2015-Jun-26 19:33N 33°46' W 118°13'0 0.0
2015-Jun-26 18:33N 33°46' W 118°13'119910660.7
2015-Jun-26 18:27N 29°45' W 095°12'11991355.6
2015-Jun-26 17:33N 33°46' W 118°13'0 0.0
2015-Jun-26 16:33N 33°46' W 118°13'12025961.6
2015-Jun-26 16:21N 29°44' W 095°08'12021505.4
2015-Jun-26 15:33N 33°46' W 118°13'0 0.0
2015-Jun-26 14:33N 33°46' W 118°13'120480265.6
2015-Jun-26 14:32N 29°45' W 095°06'5 5.1
2015-Jun-26 13:34N 29°42' W 095°01'1209290096.7
2015-Jun-26 13:33N 33°46' W 118°13'12141219.0
2015-Jun-26 12:34N 29°36' W 094°57'121497113.3
2015-Jun-26 12:33N 33°46' W 118°13'12201232.1
2015-Jun-26 11:33N 29°30' W 094°52'122032296.1
2015-Jun-26 11:31N 33°46' W 118°13'0 0.0
2015-Jun-26 10:32N 33°46' W 118°13'122610896.0
2015-Jun-26 10:26N 29°22' W 094°48'1226949.6
2015-Jun-26 09:08N 33°46' W 118°13'0 0.0
2015-Jun-26 08:33N 33°46' W 118°13'0 0.0
2015-Jun-26 07:32N 33°46' W 118°13'0 0.0
2015-Jun-26 06:32N 33°46' W 118°13'0 0.0
2015-Jun-26 05:27N 33°46' W 118°13'0 0.0
2015-Jun-26 04:30N 33°46' W 118°13'0 0.0
2015-Jun-26 02:33N 33°46' W 118°13'0 0.0
2015-Jun-26 01:33N 33°46' W 118°13'0 0.0
2015-Jun-26 00:32N 33°46' W 118°13'0 0.0
2015-Jun-25 23:33N 33°46' W 118°13'0 0.0
2015-Jun-25 22:33N 33°46' W 118°13'0 0.0
2015-Jun-25 21:33N 33°46' W 118°13'0 0.0
2015-Jun-25 20:33N 33°46' W 118°13'0 0.0
2015-Jun-25 19:33N 33°46' W 118°13'0 0.0
2015-Jun-25 18:33N 33°46' W 118°13'0 0.0
2015-Jun-25 17:33N 33°46' W 118°13'0 0.0
2015-Jun-25 16:33N 33°46' W 118°13'0 0.0
2015-Jun-25 15:33N 33°46' W 118°13'0 0.0
2015-Jun-25 14:33N 33°46' W 118°13'0 0.0
2015-Jun-25 13:33N 33°46' W 118°13'0 0.0
2015-Jun-25 12:33N 33°46' W 118°13'12207641.1
2015-Jun-25 12:24N 29°22' W 094°55'12201447.2
2015-Jun-25 11:33N 33°46' W 118°13'12234712.7
2015-Jun-25 11:18N 29°23' W 094°52'12231656.6
2015-Jun-25 10:33N 33°46' W 118°13'1225133587.2
2015-Jun-25 10:33N 29°24' W 094°49'6 5.7
2015-Jun-25 09:34N 29°29' W 094°52'1221274666.4
2015-Jun-25 09:33N 33°46' W 118°13'0 0.0
2015-Jun-25 08:30N 33°46' W 118°13'121457512.2
2015-Jun-25 08:29N 29°36' W 094°57'7 7.1
2015-Jun-25 07:34N 29°42' W 095°00'1210124413.1
2015-Jun-25 07:33N 33°46' W 118°13'0 0.0
2015-Jun-25 06:33N 33°46' W 118°13'120416354.5
2015-Jun-25 06:29N 29°45' W 095°06'12041299.5
2015-Jun-25 05:33N 33°46' W 118°13'119918364.4
2015-Jun-25 05:30N 29°44' W 095°12'11991282.1
2015-Jun-25 04:33N 33°46' W 118°13'11991200.5
2015-Jun-25 03:34N 29°44' W 095°12'11991078910.4
2015-Jun-25 03:33N 33°46' W 118°13'11991200.1
2015-Jun-25 02:34N 29°44' W 095°12'11991078905.9
2015-Jun-25 02:33N 33°46' W 118°13'11991196.8
2015-Jun-25 01:33N 29°44' W 095°12'1199308258.3
2015-Jun-25 01:33N 33°46' W 118°13'11991085.1
2015-Jun-25 00:27N 29°44' W 095°12'119920261.1
2015-Jun-25 00:23N 33°46' W 118°13'0 0.0
2015-Jun-24 23:33N 33°46' W 118°13'0 0.0
2015-Jun-24 22:33N 33°46' W 118°13'0 0.0
2015-Jun-24 21:33N 33°46' W 118°13'0 0.0
2015-Jun-24 20:33N 33°46' W 118°13'0 0.0
2015-Jun-24 19:32N 33°46' W 118°13'1202309144.5
2015-Jun-24 19:32N 29°44' W 095°08'1202984.5
2015-Jun-24 18:18N 33°46' W 118°13'0 0.0
2015-Jun-24 16:32N 33°46' W 118°13'0 0.0
2015-Jun-24 15:18N 33°46' W 118°13'0 0.0
2015-Jun-24 14:30N 33°46' W 118°13'12034479.7
2015-Jun-24 14:14N 29°47' W 095°06'12031780.5
2015-Jun-24 13:33N 33°46' W 118°13'120312741.2
2015-Jun-24 13:28N 29°47' W 095°06'12031328.8
2015-Jun-24 12:33N 33°46' W 118°13'0 0.0
2015-Jun-24 11:30N 33°46' W 118°13'12038444.7
2015-Jun-24 11:22N 29°47' W 095°06'12031298.2
2015-Jun-24 10:26N 33°46' W 118°13'120712850.4
2015-Jun-24 10:20N 29°44' W 095°03'0 0.0
2015-Jun-24 09:32N 29°44' W 095°03'12071447814.4
2015-Jun-24 09:32N 33°46' W 118°13'0 0.0
2015-Jun-24 08:33N 33°46' W 118°13'120773617.6
2015-Jun-24 08:32N 29°44' W 095°03'12071223.2
2015-Jun-24 07:33N 33°46' W 118°13'120790488.0
2015-Jun-24 07:32N 29°44' W 095°03'12071226.3
2015-Jun-24 06:33N 33°46' W 118°13'120773617.3
2015-Jun-24 06:32N 29°44' W 095°03'12071230.1
2015-Jun-24 05:33N 33°46' W 118°13'120761175.3
2015-Jun-24 05:32N 29°44' W 095°03'12071231.1
2015-Jun-24 04:33N 33°46' W 118°13'120758695.1
2015-Jun-24 04:32N 29°44' W 095°03'12071228.0
2015-Jun-24 03:33N 33°46' W 118°13'120768943.2
2015-Jun-24 03:32N 29°44' W 095°03'12071224.9
2015-Jun-24 02:33N 33°46' W 118°13'120783527.4
2015-Jun-24 02:32N 29°44' W 095°03'12071223.8
2015-Jun-24 01:33N 33°46' W 118°13'120783527.3
2015-Jun-24 01:32N 29°44' W 095°03'0 0.0
2015-Jun-24 00:34N 29°44' W 095°03'1207289561.2
2015-Jun-24 00:33N 33°46' W 118°13'0 0.0
2015-Jun-23 23:33N 33°46' W 118°13'  
Track history (hours):
 
Tides and Currents Weather Stations Pressure Air Temp Water Temp Dewpoint Dewpoint Depression Visibility Wind Speed Wind Dir Waves Ship Positions

Patcona II

Owner: Connolly-Pacific Co, long beach, CA. More information available from US FCC via Universal Licensing System and Coast Guard Vessel Documentation Center.

Last reported at 2015-Jul-03 23:33 UTC. Time now 2015-Jul-03 23:45 UTC.
Position N 33°46' W 118°13'.

; draft 9 m.

Type: Towing. MMSI: 366988960.

Date/timePositionNaut miles runAvg speedWind from/ knotsBaromVisibWave heightAir tempDewpointWater temp
2015-Jul-03 23:33N 33°46' W 118°13'0 0.0
2015-Jul-03 22:34N 33°46' W 118°13'0 0.0
2015-Jul-03 21:33N 33°46' W 118°13'0 0.0
2015-Jul-03 20:34N 33°46' W 118°13'0 0.0
2015-Jul-03 19:33N 33°46' W 118°13'11954143.0
2015-Jul-03 19:16N 29°45' W 095°17'11951691.7
2015-Jul-03 18:34N 33°46' W 118°13'1199539353.4
2015-Jul-03 18:33N 29°43' W 095°13'11991201.2
2015-Jul-03 17:34N 33°46' W 118°13'1204619250.9
2015-Jul-03 17:33N 29°45' W 095°06'12041206.1
2015-Jul-03 16:34N 33°46' W 118°13'120320055.1
2015-Jul-03 16:30N 29°47' W 095°06'12031280.1
2015-Jul-03 15:34N 33°46' W 118°13'120334380.2
2015-Jul-03 15:31N 29°47' W 095°06'12031247.0
2015-Jul-03 14:34N 33°46' W 118°13'120312134.2
2015-Jul-03 14:28N 29°47' W 095°06'12031332.1
2015-Jul-03 13:33N 33°46' W 118°13'120334109.5
2015-Jul-03 13:31N 29°47' W 095°06'12031250.6
2015-Jul-03 12:34N 33°46' W 118°13'1203721985.2
2015-Jul-03 12:33N 29°47' W 095°06'12031205.7
2015-Jul-03 11:34N 33°46' W 118°13'120318278.1
2015-Jul-03 11:30N 29°47' W 095°06'12031287.7
2015-Jul-03 10:34N 33°46' W 118°13'12035647.9
2015-Jul-03 10:21N 29°47' W 095°06'12031524.2
2015-Jul-03 09:33N 33°46' W 118°13'120310121.3
2015-Jul-03 09:26N 29°47' W 095°06'12031365.7
2015-Jul-03 08:33N 33°46' W 118°13'12033035.7
2015-Jul-03 08:10N 29°47' W 095°06'12031992.6
2015-Jul-03 07:33N 33°46' W 118°13'12038544.2
2015-Jul-03 07:25N 29°47' W 095°06'12031405.1
2015-Jul-03 06:34N 33°46' W 118°13'120375998.4
2015-Jul-03 06:33N 29°47' W 095°06'12031222.7
2015-Jul-03 05:34N 33°46' W 118°13'0 0.0
2015-Jul-03 04:34N 33°46' W 118°13'120320826.5
2015-Jul-03 04:30N 29°47' W 095°06'12031277.1
2015-Jul-03 03:34N 33°46' W 118°13'120314536.7
2015-Jul-03 03:29N 29°47' W 095°06'12031307.6
2015-Jul-03 02:33N 33°46' W 118°13'12037136.6
2015-Jul-03 02:23N 29°47' W 095°06'12031452.2
2015-Jul-03 01:34N 33°46' W 118°13'1203254818.5
2015-Jul-03 01:33N 29°47' W 095°06'12031205.7
2015-Jul-03 00:33N 33°46' W 118°13'120323289.9
2015-Jul-03 00:30N 29°47' W 095°06'12031273.0
2015-Jul-02 23:34N 33°46' W 118°13'1203117078.8
2015-Jul-02 23:33N 29°47' W 095°06'12031215.8
2015-Jul-02 22:34N 33°46' W 118°13'120375998.7
2015-Jul-02 22:33N 29°47' W 095°06'12031219.2
2015-Jul-02 21:33N 33°46' W 118°13'1203117079.3
2015-Jul-02 21:33N 29°47' W 095°06'12031215.5
2015-Jul-02 20:33N 33°46' W 118°13'1203618847.5
2015-Jul-02 20:33N 29°47' W 095°06'12031206.0
2015-Jul-02 19:33N 33°46' W 118°13'1203160441.7
2015-Jul-02 19:33N 29°47' W 095°06'12031215.5
2015-Jul-02 18:34N 33°46' W 118°13'1203254819.2
2015-Jul-02 18:33N 29°47' W 095°06'0 0.0
2015-Jul-02 17:33N 29°47' W 095°06'1203180496.9
2015-Jul-02 17:33N 33°46' W 118°13'0 0.0
2015-Jul-02 16:33N 33°46' W 118°13'120390248.1
2015-Jul-02 16:33N 29°47' W 095°06'12031222.7
2015-Jul-02 15:34N 33°46' W 118°13'1203541488.5
2015-Jul-02 15:33N 29°47' W 095°06'12031202.6
2015-Jul-02 14:33N 33°46' W 118°13'120315093.8
2015-Jul-02 14:29N 29°47' W 095°06'12031311.9
2015-Jul-02 13:34N 33°46' W 118°13'1203618844.9
2015-Jul-02 13:33N 29°47' W 095°06'12031205.3
2015-Jul-02 12:34N 33°46' W 118°13'12035435.3
2015-Jul-02 12:20N 29°47' W 095°06'12031545.5
2015-Jul-02 11:34N 33°46' W 118°13'120318355.8
2015-Jul-02 11:30N 29°47' W 095°06'12031288.1
2015-Jul-02 10:34N 33°46' W 118°13'120356260.0
2015-Jul-02 10:32N 29°47' W 095°06'12031229.6
2015-Jul-02 09:34N 33°46' W 118°13'120421888.1
2015-Jul-02 09:30N 29°46' W 095°06'12041271.7
2015-Jul-02 08:33N 33°46' W 118°13'1203393594.4
2015-Jul-02 08:33N 29°44' W 095°08'12031206.0
2015-Jul-02 07:33N 33°46' W 118°13'119953287.6
2015-Jul-02 07:32N 29°44' W 095°12'11991226.9
2015-Jul-02 06:33N 33°46' W 118°13'119719418.9
2015-Jul-02 06:30N 29°43' W 095°14'11971275.8
2015-Jul-02 05:33N 33°46' W 118°13'0 0.0
2015-Jul-02 04:33N 33°46' W 118°13'1198226899.5
2015-Jul-02 04:33N 29°43' W 095°14'11981203.9
2015-Jul-02 03:33N 33°46' W 118°13'0 0.0
2015-Jul-02 02:33N 33°46' W 118°13'119812317.4
2015-Jul-02 02:27N 29°43' W 095°14'11981331.0
2015-Jul-02 01:33N 33°46' W 118°13'119882905.6
2015-Jul-02 01:33N 29°43' W 095°14'11981214.7
2015-Jul-02 00:33N 33°46' W 118°13'0 0.0
2015-Jul-01 23:33N 33°46' W 118°13'11982155545.5
2015-Jul-01 23:33N 29°43' W 095°14'11981197.9
2015-Jul-01 22:33N 33°46' W 118°13'1198139067.5
2015-Jul-01 22:33N 29°43' W 095°14'11981208.3
2015-Jul-01 21:33N 33°46' W 118°13'1198134752.3
2015-Jul-01 21:33N 29°44' W 095°14'11981208.5
2015-Jul-01 20:33N 33°46' W 118°13'120439034.5
2015-Jul-01 20:32N 29°45' W 095°07'12041241.5
2015-Jul-01 19:33N 33°46' W 118°13'12036455.9
2015-Jul-01 19:22N 29°47' W 095°06'12031479.0
2015-Jul-01 18:33N 33°46' W 118°13'0 0.0
2015-Jul-01 17:33N 33°46' W 118°13'1203393811.6
2015-Jul-01 17:33N 29°47' W 095°06'12031207.0
2015-Jul-01 16:33N 33°46' W 118°13'120321551.9
2015-Jul-01 16:30N 29°47' W 095°06'12031274.5
2015-Jul-01 15:33N 33°46' W 118°13'12034331945.4
2015-Jul-01 15:33N 29°47' W 095°06'12031203.7
2015-Jul-01 14:33N 33°46' W 118°13'12034331945.4
2015-Jul-01 14:33N 29°47' W 095°06'12031203.3
2015-Jul-01 13:33N 33°46' W 118°13'1203139739.6
2015-Jul-01 13:33N 29°47' W 095°06'12031213.8
2015-Jul-01 12:33N 33°46' W 118°13'12034331927.4
2015-Jul-01 12:33N 29°47' W 095°06'12031203.6
2015-Jul-01 11:33N 33°46' W 118°13'1203105656.8
2015-Jul-01 11:33N 29°47' W 095°06'12031217.5
2015-Jul-01 10:33N 33°46' W 118°13'12048633.0
2015-Jul-01 10:25N 29°46' W 095°06'12041394.4
2015-Jul-01 09:33N 33°46' W 118°13'12035683.2
2015-Jul-01 09:21N 29°46' W 095°07'12031531.3
2015-Jul-01 08:33N 33°46' W 118°13'0 0.0
2015-Jul-01 07:33N 33°46' W 118°13'0 0.0
2015-Jul-01 06:33N 33°46' W 118°13'0 0.0
2015-Jul-01 05:33N 33°46' W 118°13'0 0.0
2015-Jul-01 04:33N 33°46' W 118°13'0 0.0
2015-Jul-01 03:33N 33°46' W 118°13'0 0.0
2015-Jul-01 02:33N 33°46' W 118°13'0 0.0
2015-Jul-01 01:33N 33°46' W 118°13'12033890.3
2015-Jul-01 01:15N 29°46' W 095°07'12031698.7
2015-Jul-01 00:32N 33°46' W 118°13'120313922.6
2015-Jul-01 00:27N 29°46' W 095°07'12031340.9
2015-Jun-30 23:33N 33°46' W 118°13'0 0.0
2015-Jun-30 22:33N 33°46' W 118°13'12032471.4
2015-Jun-30 22:04N 29°46' W 095°07'12032355.8
2015-Jun-30 21:33N 33°46' W 118°13'120347609.4
2015-Jun-30 21:32N 29°46' W 095°06'12031234.3
2015-Jun-30 20:33N 33°46' W 118°13'120339026.4
2015-Jun-30 20:32N 29°47' W 095°06'12031241.6
2015-Jun-30 19:33N 33°46' W 118°13'12034331978.1
2015-Jun-30 19:33N 29°47' W 095°06'12031204.0
2015-Jun-30 18:33N 33°46' W 118°13'0 0.0
2015-Jun-30 17:33N 33°46' W 118°13'1203135374.4
2015-Jun-30 17:33N 29°47' W 095°06'12031213.8
2015-Jun-30 16:33N 33°46' W 118°13'120354149.2
2015-Jun-30 16:32N 29°47' W 095°06'12031231.0
2015-Jun-30 15:33N 33°46' W 118°13'120330506.5
2015-Jun-30 15:31N 29°47' W 095°06'0 0.0
2015-Jun-30 14:33N 29°47' W 095°06'12031203.6
2015-Jun-30 13:33N 33°46' W 118°13'1204361134.6
2015-Jun-30 13:33N 29°46' W 095°06'12041207.5
2015-Jun-30 12:33N 33°46' W 118°13'1202432840.5
2015-Jun-30 12:33N 29°44' W 095°08'12021205.7
2015-Jun-30 11:33N 33°46' W 118°13'0 0.0
2015-Jun-30 10:33N 33°46' W 118°13'0 0.0
2015-Jun-30 09:33N 33°46' W 118°13'0 0.0
2015-Jun-30 08:33N 33°46' W 118°13'120230697.7
2015-Jun-30 08:31N 29°44' W 095°08'12021251.3
2015-Jun-30 07:33N 33°46' W 118°13'12039198.1
2015-Jun-30 07:26N 29°46' W 095°06'12031384.1
2015-Jun-30 06:33N 33°46' W 118°13'12034331945.4
2015-Jun-30 06:33N 29°47' W 095°06'12031203.3
2015-Jun-30 05:33N 33°46' W 118°13'0 0.0
2015-Jun-30 04:33N 33°46' W 118°13'1203333226.6
2015-Jun-30 04:33N 29°47' W 095°06'12031210.7
2015-Jun-30 03:33N 33°46' W 118°13'1203206281.9
2015-Jun-30 03:33N 29°47' W 095°06'12031210.7
2015-Jun-30 02:33N 33°46' W 118°13'1203139739.6
2015-Jun-30 02:33N 29°47' W 095°06'12031213.4
2015-Jun-30 01:33N 33°46' W 118°13'12034331945.4
2015-Jun-30 01:33N 29°47' W 095°06'12031203.7
2015-Jun-30 00:33N 33°46' W 118°13'12034331945.4
2015-Jun-30 00:33N 29°47' W 095°06'0 0.0
2015-Jun-29 23:33N 29°47' W 095°06'1203481324.5
2015-Jun-29 23:33N 33°46' W 118°13'0 0.0
2015-Jun-29 22:33N 33°46' W 118°13'1203216596.4
2015-Jun-29 22:33N 29°47' W 095°06'12031210.0
2015-Jun-29 21:33N 33°46' W 118°13'12031203.3
2015-Jun-29 20:33N 29°47' W 095°06'12031204.0
2015-Jun-29 19:33N 33°46' W 118°13'12031443975.8
2015-Jun-29 19:33N 29°47' W 095°06'12031194.0
2015-Jun-29 18:33N 33°46' W 118°13'1203206282.3
2015-Jun-29 18:33N 29°47' W 095°06'12031220.3
2015-Jun-29 17:33N 33°46' W 118°13'0 0.0
2015-Jun-29 16:33N 33°46' W 118°13'1203135372.7
2015-Jun-29 16:33N 29°47' W 095°06'0 0.0
2015-Jun-29 15:33N 29°47' W 095°06'1203433192.7
2015-Jun-29 15:33N 33°46' W 118°13'0 0.0
2015-Jun-29 14:33N 33°46' W 118°13'12034331945.4
2015-Jun-29 14:33N 29°47' W 095°06'0 0.0
2015-Jun-29 13:33N 29°47' W 095°06'12034331945.4
2015-Jun-29 13:33N 33°46' W 118°13'0 0.0
2015-Jun-29 12:33N 33°46' W 118°13'12034331945.4
2015-Jun-29 12:33N 29°47' W 095°06'12031203.3
2015-Jun-29 11:33N 33°46' W 118°13'1203393811.6
2015-Jun-29 11:33N 29°47' W 095°06'0 0.0
2015-Jun-29 10:33N 29°47' W 095°06'1203481325.3
2015-Jun-29 10:33N 33°46' W 118°13'0 0.0
2015-Jun-29 09:33N 33°46' W 118°13'12032165963.7
2015-Jun-29 09:33N 29°47' W 095°06'12031204.0
2015-Jun-29 08:33N 33°46' W 118°13'120361013.1
2015-Jun-29 08:32N 29°47' W 095°06'0 0.0
2015-Jun-29 07:33N 29°47' W 095°06'1203481325.3
2015-Jun-29 07:33N 33°46' W 118°13'0 0.0
2015-Jun-29 06:33N 33°46' W 118°13'1203139739.6
2015-Jun-29 06:33N 29°47' W 095°06'12031220.9
2015-Jun-29 05:33N 33°46' W 118°13'120342890.4
2015-Jun-29 05:32N 29°47' W 095°06'0 0.0
2015-Jun-29 04:33N 29°47' W 095°06'0 0.0
2015-Jun-29 03:33N 29°47' W 095°06'1203227996.2
2015-Jun-29 03:33N 33°46' W 118°13'0 0.0
2015-Jun-29 02:33N 33°46' W 118°13'1203433192.7
2015-Jun-29 02:33N 29°47' W 095°06'12031210.4
2015-Jun-29 01:33N 33°46' W 118°13'120320531.0
2015-Jun-29 01:30N 29°47' W 095°06'3 3.2
2015-Jun-29 00:33N 29°44' W 095°08'1203481029.6
2015-Jun-29 00:33N 33°46' W 118°13'0 0.0
2015-Jun-28 23:33N 33°46' W 118°13'120118629.7
2015-Jun-28 23:30N 29°45' W 095°10'12011282.9
2015-Jun-28 22:33N 33°46' W 118°13'1201216100.9
2015-Jun-28 22:33N 29°45' W 095°10'0 0.0
2015-Jun-28 21:33N 29°45' W 095°10'1201144067.3
2015-Jun-28 21:33N 33°46' W 118°13'0 0.0
2015-Jun-28 20:33N 33°46' W 118°13'120118710.0
2015-Jun-28 20:29N 29°45' W 095°10'12011282.9
2015-Jun-28 19:33N 33°46' W 118°13'0 0.0
2015-Jun-28 18:33N 33°46' W 118°13'0 0.0
2015-Jun-28 17:33N 33°46' W 118°13'0 0.0
2015-Jun-28 16:33N 33°46' W 118°13'120113942.0
2015-Jun-28 16:28N 29°45' W 095°10'12011314.1
2015-Jun-28 15:33N 33°46' W 118°13'12011173.8
2015-Jun-28 14:32N 29°45' W 095°10'120143655.6
2015-Jun-28 14:30N 33°46' W 118°13'0 0.0
2015-Jun-28 13:33N 33°46' W 118°13'120083081.6
2015-Jun-28 13:33N 29°45' W 095°11'12001213.9
2015-Jun-28 12:33N 33°46' W 118°13'0 0.0
2015-Jun-28 11:32N 33°46' W 118°13'11989983.5
2015-Jun-28 11:25N 29°44' W 095°14'0 0.0
2015-Jun-28 10:33N 29°44' W 095°14'119848459.1
2015-Jun-28 10:31N 33°46' W 118°13'0 0.0
2015-Jun-28 09:32N 33°46' W 118°13'119886257.2
2015-Jun-28 09:31N 29°44' W 095°14'0 0.0
2015-Jun-28 08:33N 29°44' W 095°14'119831027.8
2015-Jun-28 08:31N 33°46' W 118°13'11981242.5
2015-Jun-28 07:33N 29°44' W 095°14'1198226992.5
2015-Jun-28 07:33N 33°46' W 118°13'0 0.0
2015-Jun-28 06:33N 33°46' W 118°13'119915921.7
2015-Jun-28 06:29N 29°43' W 095°13'11991081.7
2015-Jun-28 05:22N 33°46' W 118°13'11995679.8
2015-Jun-28 05:09N 29°44' W 095°12'11991989.2
2015-Jun-28 04:33N 33°46' W 118°13'120284816.6
2015-Jun-28 04:32N 29°44' W 095°09'12021118.3
2015-Jun-28 03:28N 33°46' W 118°13'0 0.0
2015-Jun-28 02:33N 33°46' W 118°13'0 0.0
2015-Jun-28 01:33N 33°46' W 118°13'0 0.0
2015-Jun-28 00:33N 33°46' W 118°13'0 0.0
2015-Jun-27 23:32N 33°46' W 118°13'0 0.0
2015-Jun-27 22:33N 33°46' W 118°13'0 0.0
2015-Jun-27 21:26N 33°46' W 118°13'0 0.0
2015-Jun-27 20:33N 33°46' W 118°13'0 0.0
2015-Jun-27 19:33N 33°46' W 118°13'1201393143.9
2015-Jun-27 19:33N 29°44' W 095°09'12011138.6
2015-Jun-27 18:30N 33°46' W 118°13'0 0.0
2015-Jun-27 17:14N 33°46' W 118°13'0 0.0
2015-Jun-27 16:33N 33°46' W 118°13'0 0.0
2015-Jun-27 15:33N 33°46' W 118°13'0 0.0
2015-Jun-27 14:33N 33°46' W 118°13'0 0.0
2015-Jun-27 13:33N 33°46' W 118°13'0 0.0
2015-Jun-27 12:33N 33°46' W 118°13'0 0.0
2015-Jun-27 11:33N 33°46' W 118°13'0 0.0
2015-Jun-27 10:33N 33°46' W 118°13'0 0.0
2015-Jun-27 09:33N 33°46' W 118°13'120220512.8
2015-Jun-27 09:30N 29°44' W 095°08'12021247.7
2015-Jun-27 08:32N 33°46' W 118°13'0 0.0
2015-Jun-27 07:33N 33°46' W 118°13'0 0.0
2015-Jun-27 06:33N 33°46' W 118°13'0 0.0
2015-Jun-27 05:32N 33°46' W 118°13'0 0.0
2015-Jun-27 04:33N 33°46' W 118°13'120339020.2
2015-Jun-27 04:32N 29°44' W 095°07'12031241.0
2015-Jun-27 03:33N 33°46' W 118°13'1202393491.4
2015-Jun-27 03:33N 29°44' W 095°08'12021157.6
2015-Jun-27 02:31N 33°46' W 118°13'12021256.1
2015-Jun-27 01:34N 29°44' W 095°09'1202865233.3
2015-Jun-27 01:33N 33°46' W 118°13'0 0.0
2015-Jun-27 00:33N 33°46' W 118°13'119891768.2
2015-Jun-27 00:32N 29°44' W 095°13'11981220.5
2015-Jun-26 23:33N 33°46' W 118°13'119823440.6
2015-Jun-26 23:30N 29°44' W 095°13'0 0.0
2015-Jun-26 22:33N 29°44' W 095°13'1198862614.8
2015-Jun-26 22:33N 33°46' W 118°13'0 0.0
2015-Jun-26 21:33N 33°46' W 118°13'119811202.8
2015-Jun-26 21:27N 29°44' W 095°13'11981345.7
2015-Jun-26 20:33N 33°46' W 118°13'119823440.6
2015-Jun-26 20:30N 29°44' W 095°13'0 0.0
2015-Jun-26 19:34N 29°44' W 095°13'1198718849.7
2015-Jun-26 19:33N 33°46' W 118°13'0 0.0
2015-Jun-26 18:33N 33°46' W 118°13'119910660.7
2015-Jun-26 18:27N 29°45' W 095°12'11991355.6
2015-Jun-26 17:33N 33°46' W 118°13'0 0.0
2015-Jun-26 16:33N 33°46' W 118°13'12025961.6
2015-Jun-26 16:21N 29°44' W 095°08'12021505.4
2015-Jun-26 15:33N 33°46' W 118°13'0 0.0
2015-Jun-26 14:33N 33°46' W 118°13'120480265.6
2015-Jun-26 14:32N 29°45' W 095°06'5 5.1
2015-Jun-26 13:34N 29°42' W 095°01'1209290096.7
2015-Jun-26 13:33N 33°46' W 118°13'12141219.0
2015-Jun-26 12:34N 29°36' W 094°57'121497113.3
2015-Jun-26 12:33N 33°46' W 118°13'12201232.1
2015-Jun-26 11:33N 29°30' W 094°52'122032296.1
2015-Jun-26 11:31N 33°46' W 118°13'0 0.0
2015-Jun-26 10:32N 33°46' W 118°13'122610896.0
2015-Jun-26 10:26N 29°22' W 094°48'1226949.6
2015-Jun-26 09:08N 33°46' W 118°13'0 0.0
2015-Jun-26 08:33N 33°46' W 118°13'0 0.0
2015-Jun-26 07:32N 33°46' W 118°13'0 0.0
2015-Jun-26 06:32N 33°46' W 118°13'0 0.0
2015-Jun-26 05:27N 33°46' W 118°13'0 0.0
2015-Jun-26 04:30N 33°46' W 118°13'0 0.0
2015-Jun-26 02:33N 33°46' W 118°13'0 0.0
2015-Jun-26 01:33N 33°46' W 118°13'0 0.0
2015-Jun-26 00:32N 33°46' W 118°13'0 0.0
2015-Jun-25 23:33N 33°46' W 118°13'0 0.0
2015-Jun-25 22:33N 33°46' W 118°13'0 0.0
2015-Jun-25 21:33N 33°46' W 118°13'0 0.0
2015-Jun-25 20:33N 33°46' W 118°13'0 0.0
2015-Jun-25 19:33N 33°46' W 118°13'0 0.0
2015-Jun-25 18:33N 33°46' W 118°13'0 0.0
2015-Jun-25 17:33N 33°46' W 118°13'0 0.0
2015-Jun-25 16:33N 33°46' W 118°13'0 0.0
2015-Jun-25 15:33N 33°46' W 118°13'0 0.0
2015-Jun-25 14:33N 33°46' W 118°13'0 0.0
2015-Jun-25 13:33N 33°46' W 118°13'0 0.0
2015-Jun-25 12:33N 33°46' W 118°13'12207641.1
2015-Jun-25 12:24N 29°22' W 094°55'12201447.2
2015-Jun-25 11:33N 33°46' W 118°13'12234712.7
2015-Jun-25 11:18N 29°23' W 094°52'12231656.6
2015-Jun-25 10:33N 33°46' W 118°13'1225133587.2
2015-Jun-25 10:33N 29°24' W 094°49'6 5.7
2015-Jun-25 09:34N 29°29' W 094°52'1221274666.4
2015-Jun-25 09:33N 33°46' W 118°13'0 0.0
2015-Jun-25 08:30N 33°46' W 118°13'121457512.2
2015-Jun-25 08:29N 29°36' W 094°57'7 7.1
2015-Jun-25 07:34N 29°42' W 095°00'1210124413.1
2015-Jun-25 07:33N 33°46' W 118°13'0 0.0
2015-Jun-25 06:33N 33°46' W 118°13'120416354.5
2015-Jun-25 06:29N 29°45' W 095°06'12041299.5
2015-Jun-25 05:33N 33°46' W 118°13'119918364.4
2015-Jun-25 05:30N 29°44' W 095°12'11991282.1
2015-Jun-25 04:33N 33°46' W 118°13'11991200.5
2015-Jun-25 03:34N 29°44' W 095°12'11991078910.4
2015-Jun-25 03:33N 33°46' W 118°13'11991200.1
2015-Jun-25 02:34N 29°44' W 095°12'11991078905.9
2015-Jun-25 02:33N 33°46' W 118°13'11991196.8
2015-Jun-25 01:33N 29°44' W 095°12'1199308258.3
2015-Jun-25 01:33N 33°46' W 118°13'11991085.1
2015-Jun-25 00:27N 29°44' W 095°12'119920261.1
2015-Jun-25 00:23N 33°46' W 118°13'0 0.0
2015-Jun-24 23:33N 33°46' W 118°13'0 0.0
2015-Jun-24 22:33N 33°46' W 118°13'0 0.0
2015-Jun-24 21:33N 33°46' W 118°13'0 0.0
2015-Jun-24 20:33N 33°46' W 118°13'0 0.0
2015-Jun-24 19:32N 33°46' W 118°13'1202309144.5
2015-Jun-24 19:32N 29°44' W 095°08'1202984.5
2015-Jun-24 18:18N 33°46' W 118°13'0 0.0
2015-Jun-24 16:32N 33°46' W 118°13'0 0.0
2015-Jun-24 15:18N 33°46' W 118°13'0 0.0
2015-Jun-24 14:30N 33°46' W 118°13'12034479.7
2015-Jun-24 14:14N 29°47' W 095°06'12031780.5
2015-Jun-24 13:33N 33°46' W 118°13'120312741.2
2015-Jun-24 13:28N 29°47' W 095°06'12031328.8
2015-Jun-24 12:33N 33°46' W 118°13'0 0.0
2015-Jun-24 11:30N 33°46' W 118°13'12038444.7
2015-Jun-24 11:22N 29°47' W 095°06'12031298.2
2015-Jun-24 10:26N 33°46' W 118°13'120712850.4
2015-Jun-24 10:20N 29°44' W 095°03'0 0.0
2015-Jun-24 09:32N 29°44' W 095°03'12071447814.4
2015-Jun-24 09:32N 33°46' W 118°13'0 0.0
2015-Jun-24 08:33N 33°46' W 118°13'120773617.6
2015-Jun-24 08:32N 29°44' W 095°03'12071223.2
2015-Jun-24 07:33N 33°46' W 118°13'120790488.0
2015-Jun-24 07:32N 29°44' W 095°03'12071226.3
2015-Jun-24 06:33N 33°46' W 118°13'120773617.3
2015-Jun-24 06:32N 29°44' W 095°03'12071230.1
2015-Jun-24 05:33N 33°46' W 118°13'120761175.3
2015-Jun-24 05:32N 29°44' W 095°03'12071231.1
2015-Jun-24 04:33N 33°46' W 118°13'120758695.1
2015-Jun-24 04:32N 29°44' W 095°03'12071228.0
2015-Jun-24 03:33N 33°46' W 118°13'120768943.2
2015-Jun-24 03:32N 29°44' W 095°03'12071224.9
2015-Jun-24 02:33N 33°46' W 118°13'120783527.4
2015-Jun-24 02:32N 29°44' W 095°03'12071223.8
2015-Jun-24 01:33N 33°46' W 118°13'120783527.3
2015-Jun-24 01:32N 29°44' W 095°03'0 0.0
2015-Jun-24 00:34N 29°44' W 095°03'1207289561.2
2015-Jun-24 00:33N 33°46' W 118°13'0 0.0
2015-Jun-23 23:33N 33°46' W 118°13'  

Dump ship's entire track history